Time;durP1;ratioP1;P1;durP2;ratioP2;P2;SDS_P1;SDS_P2;PMS_P1;PMS_P2;Temp;Humidity;BMP_temperature;BMP_pressure;BME280_temperature;BME280_humidity;BME280_pressure;Samples;Min_cycle;Max_cycle;Signal;HPM_P1;HPM_P2
2021/06/23 00:00:51;;;;;;;12.27;11.10;;;;;;;;;;5115709;27;20439;-68
2021/06/23 00:03:18;;;;;;;14.57;10.07;;;;;;;;;;5116466;28;20435;-68
2021/06/23 00:05:45;;;;;;;14.30;10.60;;;;;;;;;;5116083;28;20438;-68
2021/06/23 00:08:12;;;;;;;14.57;11.20;;;;;;;;;;5115902;28;20457;-68
2021/06/23 00:10:39;;;;;;;21.60;11.50;;;;;;;;;;5116030;28;20487;-68
2021/06/23 00:13:08;;;;;;;13.80;11.70;;;;;;;;;;5115867;28;20433;-68
2021/06/23 00:15:36;;;;;;;15.40;10.77;;;;;;;;;;5115724;28;20459;-68
2021/06/23 00:18:05;;;;;;;16.10;10.70;;;;;;;;;;5115461;28;20474;-68
2021/06/23 00:20:32;;;;;;;15.83;11.83;;;;;;;;;;5115634;28;20439;-68
2021/06/23 00:23:00;;;;;;;17.10;10.97;;;;;;;;;;5115683;28;20478;-68
2021/06/23 00:25:27;;;;;;;14.17;11.00;;;;;;;;;;5115295;28;20513;-68
2021/06/23 00:27:54;;;;;;;19.53;11.73;;;;;;;;;;5115570;28;20527;-68
2021/06/23 00:30:21;;;;;;;14.77;11.27;;;;;;;;;;5115633;28;20530;-68
2021/06/23 00:32:50;;;;;;;13.50;10.80;;;;;;;;;;5115652;28;20470;-69
2021/06/23 00:35:18;;;;;;;16.10;10.77;;;;;;;;;;5116055;28;20539;-68
2021/06/23 00:37:46;;;;;;;13.57;11.67;;;;;;;;;;5115034;28;20988;-68
2021/06/23 00:40:13;;;;;;;12.40;11.00;;;;;;;;;;5119876;28;20440;-68
2021/06/23 00:42:42;;;;;;;15.90;11.30;;;;;;;;;;5120556;28;20467;-69
2021/06/23 00:45:10;;;;;;;15.63;10.97;;;;;;;;;;5115828;28;20438;-68
2021/06/23 00:47:38;;;;;;;14.60;11.27;;;;;;;;;;5115593;28;20550;-69
2021/06/23 00:50:06;;;;;;;18.50;11.40;;;;;;;;;;5115093;28;20525;-68
2021/06/23 00:52:35;;;;;;;11.30;10.10;;;;;;;;;;5115148;28;20439;-68
2021/06/23 00:55:02;;;;;;;12.97;10.83;;;;;;;;;;5114942;28;20481;-68
2021/06/23 00:57:32;;;;;;;19.70;11.73;;;;;;;;;;5115263;28;21053;-68
2021/06/23 00:59:59;;;;;;;14.47;10.33;;;;;;;;;;5115443;28;20444;-68
2021/06/23 01:02:27;;;;;;;13.90;10.93;;;;;;;;;;5114852;28;20438;-68
2021/06/23 01:04:54;;;;;;;14.00;10.93;;;;;;;;;;5115053;28;20449;-69
2021/06/23 01:07:22;;;;;;;19.23;12.23;;;;;;;;;;5114752;28;20466;-69
2021/06/23 01:09:50;;;;;;;19.33;11.83;;;;;;;;;;5115059;27;20534;-69
2021/06/23 01:12:22;;;;;;;16.03;11.13;;;;;;;;;;5114695;28;20522;-69
2021/06/23 01:14:51;;;;;;;12.73;10.30;;;;;;;;;;5114676;28;20514;-68
2021/06/23 01:17:20;;;;;;;16.83;10.10;;;;;;;;;;5114410;28;21026;-68
2021/06/23 01:19:47;;;;;;;15.23;10.33;;;;;;;;;;5114262;28;20943;-68
2021/06/23 01:22:17;;;;;;;12.20;10.90;;;;;;;;;;5114519;28;20445;-68
2021/06/23 01:24:44;;;;;;;14.80;10.10;;;;;;;;;;5114490;28;20443;-68
2021/06/23 01:27:12;;;;;;;12.70;10.13;;;;;;;;;;5114410;28;20439;-68
2021/06/23 01:29:40;;;;;;;17.37;10.63;;;;;;;;;;5114978;28;20437;-68
2021/06/23 01:32:08;;;;;;;15.93;10.10;;;;;;;;;;5114428;28;20518;-68
2021/06/23 01:34:35;;;;;;;15.30;10.40;;;;;;;;;;5114381;28;20809;-68
2021/06/23 01:37:02;;;;;;;15.93;11.50;;;;;;;;;;5114060;28;20950;-68
2021/06/23 01:39:31;;;;;;;12.47;10.43;;;;;;;;;;5114324;28;20478;-68
2021/06/23 01:41:58;;;;;;;19.23;11.10;;;;;;;;;;5114387;28;20432;-68
2021/06/23 01:44:25;;;;;;;19.13;10.50;;;;;;;;;;5114341;28;20454;-68
2021/06/23 01:46:52;;;;;;;20.30;10.10;;;;;;;;;;5114281;28;20451;-68
2021/06/23 01:49:21;;;;;;;14.93;11.30;;;;;;;;;;5113700;28;20475;-68
2021/06/23 01:51:49;;;;;;;14.80;11.13;;;;;;;;;;5113863;28;20435;-68
2021/06/23 01:54:16;;;;;;;20.93;11.83;;;;;;;;;;5114427;28;20492;-68
2021/06/23 01:56:44;;;;;;;12.90;10.63;;;;;;;;;;5113820;28;20935;-68
2021/06/23 01:59:12;;;;;;;19.63;10.43;;;;;;;;;;5114424;28;20435;-68
2021/06/23 02:01:47;;;;;;;14.83;10.40;;;;;;;;;;5118425;28;20869;-68
2021/06/23 02:04:20;;;;;;;13.50;9.97;;;;;;;;;;5118080;28;20430;-68
2021/06/23 02:07:00;;;;;;;14.20;9.93;;;;;;;;;;5118638;28;20434;-68
2021/06/23 02:09:38;;;;;;;14.37;8.83;;;;;;;;;;5118367;28;20427;-68
2021/06/23 02:12:13;;;;;;;12.23;9.13;;;;;;;;;;5118331;28;20426;-69
2021/06/23 02:14:41;;;;;;;11.37;8.43;;;;;;;;;;5118358;28;20462;-68
2021/06/23 02:17:10;;;;;;;13.73;8.73;;;;;;;;;;5117963;28;20491;-69
2021/06/23 02:19:42;;;;;;;8.87;7.57;;;;;;;;;;5117705;28;20431;-69
2021/06/23 02:22:13;;;;;;;13.03;7.40;;;;;;;;;;5117655;28;20443;-68
2021/06/23 02:24:41;;;;;;;13.70;7.33;;;;;;;;;;5117916;28;20869;-69
2021/06/23 02:27:10;;;;;;;23.80;8.57;;;;;;;;;;5117863;28;20525;-68
2021/06/23 02:29:37;;;;;;;14.17;8.20;;;;;;;;;;5117873;28;20520;-69
2021/06/23 02:32:05;;;;;;;14.50;8.13;;;;;;;;;;5117828;28;20439;-68
2021/06/23 02:34:33;;;;;;;11.90;7.20;;;;;;;;;;5117337;28;20565;-69
2021/06/23 02:37:02;;;;;;;17.67;7.90;;;;;;;;;;5117656;28;20491;-68
2021/06/23 02:39:29;;;;;;;11.80;7.33;;;;;;;;;;5117377;28;21065;-68
2021/06/23 02:41:56;;;;;;;12.60;8.30;;;;;;;;;;5117842;28;20521;-68
2021/06/23 02:44:25;;;;;;;11.47;7.37;;;;;;;;;;5117251;28;20542;-68
2021/06/23 02:46:52;;;;;;;10.37;6.60;;;;;;;;;;5118131;28;20445;-70
2021/06/23 02:49:20;;;;;;;9.43;6.93;;;;;;;;;;5117185;27;20481;-68
2021/06/23 02:51:49;;;;;;;10.20;6.90;;;;;;;;;;5117129;28;20961;-69
2021/06/23 02:54:16;;;;;;;12.73;6.90;;;;;;;;;;5117349;28;20473;-68
2021/06/23 02:56:44;;;;;;;12.07;6.50;;;;;;;;;;5117555;28;20983;-69
2021/06/23 02:59:12;;;;;;;11.83;6.30;;;;;;;;;;5117315;28;20444;-69
2021/06/23 03:01:41;;;;;;;10.73;6.80;;;;;;;;;;5118074;28;20465;-69
2021/06/23 03:04:08;;;;;;;12.27;7.30;;;;;;;;;;5116905;28;20987;-69
2021/06/23 03:06:35;;;;;;;9.70;6.40;;;;;;;;;;5117141;28;20442;-69
2021/06/23 03:09:02;;;;;;;13.03;6.37;;;;;;;;;;5116799;28;20447;-69
2021/06/23 03:11:33;;;;;;;16.57;7.50;;;;;;;;;;5116704;28;20934;-69
2021/06/23 03:14:00;;;;;;;11.20;5.73;;;;;;;;;;5116560;28;20442;-69
2021/06/23 03:16:27;;;;;;;8.47;6.20;;;;;;;;;;5116917;28;20442;-68
2021/06/23 03:18:56;;;;;;;7.90;6.00;;;;;;;;;;5116980;28;20431;-69
2021/06/23 03:21:23;;;;;;;9.30;5.50;;;;;;;;;;5116523;28;20474;-68
2021/06/23 03:23:51;;;;;;;9.97;6.20;;;;;;;;;;5117344;28;20441;-69
2021/06/23 03:26:19;;;;;;;10.30;6.30;;;;;;;;;;5122682;27;20530;-69
2021/06/23 03:28:47;;;;;;;19.80;6.20;;;;;;;;;;5119767;28;20443;-69
2021/06/23 03:31:15;;;;;;;11.27;7.40;;;;;;;;;;5116749;28;20438;-69
2021/06/23 03:33:42;;;;;;;10.43;6.90;;;;;;;;;;5116847;28;20435;-68
2021/06/23 03:36:10;;;;;;;15.93;5.87;;;;;;;;;;5116464;28;20484;-69
2021/06/23 03:38:38;;;;;;;16.33;6.83;;;;;;;;;;5116826;28;20447;-69
2021/06/23 03:41:05;;;;;;;14.37;5.97;;;;;;;;;;5116180;28;20451;-68
2021/06/23 03:43:32;;;;;;;14.60;6.87;;;;;;;;;;5116424;28;20442;-69
2021/06/23 03:45:59;;;;;;;9.20;6.30;;;;;;;;;;5115991;28;20484;-68
2021/06/23 03:48:27;;;;;;;11.00;6.43;;;;;;;;;;5115966;28;20525;-68
2021/06/23 03:50:54;;;;;;;13.73;6.03;;;;;;;;;;5116277;28;20445;-69
2021/06/23 03:53:22;;;;;;;13.00;6.00;;;;;;;;;;5116628;28;20434;-69
2021/06/23 03:55:49;;;;;;;6.77;5.40;;;;;;;;;;5115761;28;21029;-69
2021/06/23 03:58:17;;;;;;;10.43;6.63;;;;;;;;;;5115841;28;20958;-68
2021/06/23 04:00:44;;;;;;;8.17;5.27;;;;;;;;;;5115792;27;20932;-69
2021/06/23 04:03:11;;;;;;;9.27;5.67;;;;;;;;;;5116016;28;20442;-69
2021/06/23 04:05:38;;;;;;;8.67;5.63;;;;;;;;;;5116360;28;20478;-69
2021/06/23 04:08:05;;;;;;;6.13;5.40;;;;;;;;;;5115874;28;20445;-68
2021/06/23 04:10:34;;;;;;;12.37;6.50;;;;;;;;;;5116037;28;20801;-69
2021/06/23 04:13:01;;;;;;;11.43;5.70;;;;;;;;;;5115847;28;20448;-68
2021/06/23 04:15:28;;;;;;;8.90;5.70;;;;;;;;;;5115425;28;20479;-69
2021/06/23 04:17:56;;;;;;;9.63;5.57;;;;;;;;;;5115327;28;20507;-69
2021/06/23 04:20:23;;;;;;;9.43;6.70;;;;;;;;;;5115704;28;20478;-68
2021/06/23 04:22:50;;;;;;;13.83;6.20;;;;;;;;;;5115354;28;20799;-68
2021/06/23 04:25:17;;;;;;;10.83;6.20;;;;;;;;;;5115586;28;20812;-68
2021/06/23 04:27:46;;;;;;;8.70;5.50;;;;;;;;;;5123912;27;20437;-68
2021/06/23 04:30:14;;;;;;;12.30;6.20;;;;;;;;;;5135884;27;20448;-69
2021/06/23 04:32:41;;;;;;;7.50;5.30;;;;;;;;;;5135615;27;20530;-68
2021/06/23 04:35:09;;;;;;;9.23;5.10;;;;;;;;;;5135893;27;20560;-68
2021/06/23 04:37:37;;;;;;;8.37;5.73;;;;;;;;;;5135832;27;20448;-69
2021/06/23 04:40:05;;;;;;;7.70;5.27;;;;;;;;;;5135432;27;21010;-69
2021/06/23 04:42:32;;;;;;;11.13;5.97;;;;;;;;;;5135841;27;20438;-69
2021/06/23 04:45:12;;;;;;;12.23;5.23;;;;;;;;;;5135640;27;20448;-69
2021/06/23 04:47:39;;;;;;;10.80;5.27;;;;;;;;;;5135770;27;20482;-69
2021/06/23 04:50:08;;;;;;;8.33;4.80;;;;;;;;;;5135962;27;20446;-68
2021/06/23 04:52:35;;;;;;;9.43;4.70;;;;;;;;;;5135578;27;20438;-69
2021/06/23 04:55:03;;;;;;;14.00;5.63;;;;;;;;;;5135909;27;20851;-68
2021/06/23 04:57:30;;;;;;;10.03;6.40;;;;;;;;;;5124668;27;20928;-69
2021/06/23 04:59:57;;;;;;;8.50;5.60;;;;;;;;;;5114512;28;20958;-68
2021/06/23 05:02:26;;;;;;;7.93;5.33;;;;;;;;;;5114735;28;20443;-68
2021/06/23 05:04:55;;;;;;;13.50;6.50;;;;;;;;;;5114876;28;20482;-68
2021/06/23 05:07:22;;;;;;;9.93;4.70;;;;;;;;;;5114330;28;20503;-69
2021/06/23 05:09:51;;;;;;;17.13;5.87;;;;;;;;;;5114655;28;20450;-69
2021/06/23 05:12:18;;;;;;;8.53;4.93;;;;;;;;;;5114286;28;20446;-68
2021/06/23 05:14:46;;;;;;;14.37;5.40;;;;;;;;;;5114241;28;20940;-69
2021/06/23 05:17:13;;;;;;;11.67;4.80;;;;;;;;;;5114302;28;20565;-69
2021/06/23 05:19:41;;;;;;;22.40;10.05;;;;;;;;;;5113216;28;20428;-68
2021/06/23 05:22:11;;;;;;;10.90;5.43;;;;;;;;;;5114435;28;20442;-69
2021/06/23 05:24:39;;;;;;;9.23;5.10;;;;;;;;;;5114464;28;20538;-68
2021/06/23 05:27:06;;;;;;;12.10;5.50;;;;;;;;;;5114841;28;20462;-68
2021/06/23 05:29:33;;;;;;;10.23;5.10;;;;;;;;;;5114460;28;20542;-68
2021/06/23 05:32:01;;;;;;;7.17;5.07;;;;;;;;;;5113906;28;20453;-68
2021/06/23 05:34:29;;;;;;;9.53;5.93;;;;;;;;;;5113403;28;20456;-68
2021/06/23 05:36:58;;;;;;;10.70;5.33;;;;;;;;;;5113902;28;20467;-68
2021/06/23 05:39:25;;;;;;;10.23;6.60;;;;;;;;;;5114232;28;20644;-69
2021/06/23 05:41:53;;;;;;;12.77;4.63;;;;;;;;;;5114408;28;20530;-68
2021/06/23 05:44:20;;;;;;;6.47;5.10;;;;;;;;;;5113903;28;20925;-67
2021/06/23 05:46:48;;;;;;;12.33;6.30;;;;;;;;;;5114172;28;20452;-68
2021/06/23 05:49:15;;;;;;;13.90;5.90;;;;;;;;;;5114108;28;20434;-69
2021/06/23 05:51:42;;;;;;;11.63;6.70;;;;;;;;;;5114538;28;20435;-68
2021/06/23 05:54:11;;;;;;;13.47;5.57;;;;;;;;;;5113779;28;20436;-68
2021/06/23 05:56:38;;;;;;;13.30;5.57;;;;;;;;;;5113899;28;20570;-69
2021/06/23 05:59:05;;;;;;;13.83;5.70;;;;;;;;;;5114286;28;20526;-69
2021/06/23 06:01:32;;;;;;;12.87;6.10;;;;;;;;;;5113690;28;20525;-69
2021/06/23 06:03:59;;;;;;;12.30;6.70;;;;;;;;;;5114022;28;20457;-68
2021/06/23 06:06:27;;;;;;;11.90;7.67;;;;;;;;;;5113941;28;20443;-68
2021/06/23 06:08:55;;;;;;;14.33;6.70;;;;;;;;;;5113626;28;20446;-68
2021/06/23 06:11:24;;;;;;;11.40;6.13;;;;;;;;;;5113880;28;20527;-68
2021/06/23 06:13:51;;;;;;;16.90;6.87;;;;;;;;;;5114537;28;20435;-68
2021/06/23 06:16:18;;;;;;;10.60;5.30;;;;;;;;;;5113562;28;20804;-68
2021/06/23 06:18:47;;;;;;;11.77;6.00;;;;;;;;;;5113175;28;20430;-69
2021/06/23 06:21:14;;;;;;;12.63;5.40;;;;;;;;;;5113452;28;20438;-68
2021/06/23 06:23:42;;;;;;;12.60;5.90;;;;;;;;;;5113733;28;20430;-68
2021/06/23 06:26:09;;;;;;;7.73;6.00;;;;;;;;;;5113740;28;20521;-68
2021/06/23 06:28:39;;;;;;;6.30;4.23;;;;;;;;;;5113583;28;20442;-68
2021/06/23 06:31:06;;;;;;;13.27;5.57;;;;;;;;;;5113387;28;20555;-68
2021/06/23 06:33:33;;;;;;;9.53;5.13;;;;;;;;;;5113656;28;20545;-68
2021/06/23 06:36:00;;;;;;;16.90;5.40;;;;;;;;;;5113587;28;20563;-68
2021/06/23 06:38:28;;;;;;;8.77;4.43;;;;;;;;;;5114233;28;20972;-70
2021/06/23 06:40:55;;;;;;;16.50;5.40;;;;;;;;;;5114140;28;20445;-70
2021/06/23 06:43:22;;;;;;;12.33;4.30;;;;;;;;;;5113541;28;20526;-68
2021/06/23 06:45:52;;;;;;;6.93;4.37;;;;;;;;;;5115151;28;20538;-68
2021/06/23 06:48:20;;;;;;;8.03;3.93;;;;;;;;;;5117310;28;20453;-68
2021/06/23 06:50:47;;;;;;;7.63;3.33;;;;;;;;;;5117681;28;20975;-69
2021/06/23 06:53:15;;;;;;;4.60;3.77;;;;;;;;;;5117804;28;20495;-68
2021/06/23 06:55:42;;;;;;;12.10;4.63;;;;;;;;;;5117190;28;20475;-68
2021/06/23 06:58:09;;;;;;;5.97;3.73;;;;;;;;;;5117605;28;20445;-68
2021/06/23 07:00:37;;;;;;;13.93;4.00;;;;;;;;;;5117194;28;20526;-68
2021/06/23 07:03:06;;;;;;;7.77;4.27;;;;;;;;;;5117667;28;20496;-68
2021/06/23 07:05:33;;;;;;;6.93;3.20;;;;;;;;;;5117554;28;20466;-68
2021/06/23 07:08:01;;;;;;;13.77;4.40;;;;;;;;;;5117373;28;20518;-68
2021/06/23 07:10:28;;;;;;;7.33;3.70;;;;;;;;;;5116658;28;20446;-69
2021/06/23 07:12:55;;;;;;;15.83;5.00;;;;;;;;;;5117251;28;20443;-68
2021/06/23 07:15:22;;;;;;;5.60;4.60;;;;;;;;;;5116856;28;20925;-69
2021/06/23 07:17:51;;;;;;;11.63;3.80;;;;;;;;;;5116922;28;20558;-70
2021/06/23 07:20:20;;;;;;;8.00;4.13;;;;;;;;;;5117571;28;20455;-74
2021/06/23 07:22:47;;;;;;;15.00;4.97;;;;;;;;;;5117102;28;20485;-68
2021/06/23 07:25:15;;;;;;;5.60;3.50;;;;;;;;;;5116338;28;20517;-69
2021/06/23 07:27:42;;;;;;;5.63;3.33;;;;;;;;;;5116374;28;20447;-69
2021/06/23 07:30:10;;;;;;;9.77;3.40;;;;;;;;;;5116331;28;20447;-69
2021/06/23 07:32:44;;;;;;;6.70;3.17;;;;;;;;;;5116241;28;20517;-68
2021/06/23 07:37:49;;;;;;;14.20;4.20;;;;;;;;;;5116609;28;20447;-68
2021/06/23 07:40:18;;;;;;;8.33;3.70;;;;;;;;;;5116441;28;20435;-69
2021/06/23 07:42:45;;;;;;;8.93;3.83;;;;;;;;;;5116325;28;20450;-68
2021/06/23 07:45:13;;;;;;;4.93;3.70;;;;;;;;;;5116053;28;20443;-70
2021/06/23 07:47:41;;;;;;;7.17;3.87;;;;;;;;;;5116781;28;20450;-68
2021/06/23 07:50:10;;;;;;;8.60;4.50;;;;;;;;;;5116234;28;20440;-67
2021/06/23 07:52:44;;;;;;;9.20;4.13;;;;;;;;;;5115902;28;20534;-69
2021/06/23 07:55:42;;;;;;;6.90;3.83;;;;;;;;;;5116397;28;20423;-69
2021/06/23 08:01:30;;;;;;;8.53;4.07;;;;;;;;;;5115868;28;20402;-67
2021/06/23 08:09:38;;;;;;;8.60;3.73;;;;;;;;;;5115868;28;20395;-69
2021/06/23 08:12:17;;;;;;;9.30;3.60;;;;;;;;;;5134272;27;20448;-70
2021/06/23 08:14:45;;;;;;;9.60;3.97;;;;;;;;;;5136811;27;20461;-68
2021/06/23 08:17:12;;;;;;;14.50;4.30;;;;;;;;;;5135977;27;20580;-67
2021/06/23 08:19:39;;;;;;;10.40;3.10;;;;;;;;;;5136169;27;20462;-69
2021/06/23 08:22:10;;;;;;;8.67;3.40;;;;;;;;;;5136117;27;20447;-69
2021/06/23 08:24:37;;;;;;;8.77;3.90;;;;;;;;;;5136082;27;21002;-69
2021/06/23 08:27:13;;;;;;;5.00;3.37;;;;;;;;;;5129766;27;20450;-69
2021/06/23 08:29:40;;;;;;;6.87;3.43;;;;;;;;;;5115841;28;20458;-69
2021/06/23 08:32:08;;;;;;;6.10;3.70;;;;;;;;;;5115082;28;20431;-69
2021/06/23 08:34:36;;;;;;;5.20;3.10;;;;;;;;;;5115055;28;20442;-70
2021/06/23 08:37:03;;;;;;;7.37;2.97;;;;;;;;;;5115190;28;20967;-70
2021/06/23 08:39:30;;;;;;;7.43;3.73;;;;;;;;;;5115557;28;20474;-69
2021/06/23 08:41:58;;;;;;;7.00;3.30;;;;;;;;;;5115098;28;20938;-69
2021/06/23 08:44:26;;;;;;;7.00;3.03;;;;;;;;;;5115105;28;20802;-69
2021/06/23 08:46:54;;;;;;;7.23;3.07;;;;;;;;;;5115001;28;20530;-69
2021/06/23 08:49:21;;;;;;;4.37;3.00;;;;;;;;;;5114710;28;20978;-70
2021/06/23 08:51:50;;;;;;;9.20;3.50;;;;;;;;;;5114152;28;20431;-70
2021/06/23 08:54:17;;;;;;;5.07;3.67;;;;;;;;;;5114845;28;20189;-70
2021/06/23 08:56:44;;;;;;;8.03;3.20;;;;;;;;;;5114381;28;20475;-69
2021/06/23 08:59:11;;;;;;;8.83;3.90;;;;;;;;;;5115293;28;20481;-69
2021/06/23 09:01:42;;;;;;;7.70;2.90;;;;;;;;;;5114361;28;20441;-67
2021/06/23 09:04:10;;;;;;;6.53;4.37;;;;;;;;;;5114420;28;20508;-69
2021/06/23 09:06:44;;;;;;;6.50;3.80;;;;;;;;;;5114315;28;20503;-75
2021/06/23 09:09:22;;;;;;;11.20;4.60;;;;;;;;;;5114389;28;20449;-67
2021/06/23 09:11:50;;;;;;;18.33;11.33;;;;;;;;;;5114147;28;20514;-68
2021/06/23 09:14:18;;;;;;;9.50;4.57;;;;;;;;;;5114157;28;20998;-68
2021/06/23 09:17:04;;;;;;;8.97;4.20;;;;;;;;;;5114525;28;20585;-68
2021/06/23 09:19:32;;;;;;;8.00;3.80;;;;;;;;;;5114461;28;20786;-66
2021/06/23 09:21:59;;;;;;;8.20;3.70;;;;;;;;;;5114027;28;20523;-67
2021/06/23 09:24:34;;;;;;;8.00;3.67;;;;;;;;;;5114138;28;20450;-67
2021/06/23 09:27:02;;;;;;;9.03;3.97;;;;;;;;;;5113799;28;20449;-67
2021/06/23 09:29:29;;;;;;;11.03;4.00;;;;;;;;;;5113918;28;20526;-67
2021/06/23 09:31:58;;;;;;;7.20;3.07;;;;;;;;;;5114231;28;20915;-70
2021/06/23 09:34:28;;;;;;;7.37;3.60;;;;;;;;;;5114025;28;20488;-69
2021/06/23 09:36:55;;;;;;;9.40;3.87;;;;;;;;;;5114129;28;20523;-69
2021/06/23 09:39:23;;;;;;;9.73;3.97;;;;;;;;;;5113708;28;20938;-73
2021/06/23 09:41:51;;;;;;;12.00;5.07;;;;;;;;;;5113527;28;20431;-70
2021/06/23 09:44:18;;;;;;;8.13;4.67;;;;;;;;;;5114748;28;20450;-71
2021/06/23 09:46:46;;;;;;;11.30;4.10;;;;;;;;;;5113930;28;20467;-71
2021/06/23 09:49:15;;;;;;;9.30;4.13;;;;;;;;;;5113895;28;20796;-71
2021/06/23 09:51:45;;;;;;;10.93;4.63;;;;;;;;;;5113511;28;20439;-71
2021/06/23 09:54:13;;;;;;;8.90;3.87;;;;;;;;;;5113690;28;20672;-71
2021/06/23 09:56:44;;;;;;;10.20;4.97;;;;;;;;;;5113529;28;20475;-71
2021/06/23 09:59:18;;;;;;;8.67;4.47;;;;;;;;;;5113943;28;20436;-70
2021/06/23 10:01:46;;;;;;;10.07;5.53;;;;;;;;;;5114004;28;20800;-70
2021/06/23 10:04:13;;;;;;;9.10;4.40;;;;;;;;;;5114546;28;20439;-70
2021/06/23 10:06:43;;;;;;;12.70;4.80;;;;;;;;;;5113520;28;20452;-76
2021/06/23 10:09:29;;;;;;;10.70;4.87;;;;;;;;;;5113817;28;20459;-69
2021/06/23 10:12:00;;;;;;;12.00;4.53;;;;;;;;;;5113810;28;20446;-70
2021/06/23 10:14:28;;;;;;;10.77;4.33;;;;;;;;;;5114181;28;20462;-69
2021/06/23 10:16:56;;;;;;;8.83;5.80;;;;;;;;;;5113753;28;20495;-69
2021/06/23 10:19:23;;;;;;;11.10;5.10;;;;;;;;;;5113652;28;20772;-69
2021/06/23 10:21:50;;;;;;;5.70;3.90;;;;;;;;;;5117201;28;20445;-69
2021/06/23 10:24:18;;;;;;;9.77;4.50;;;;;;;;;;5117819;28;20448;-68
2021/06/23 10:26:47;;;;;;;6.27;4.50;;;;;;;;;;5117469;28;20952;-68
2021/06/23 10:29:17;;;;;;;8.03;4.83;;;;;;;;;;5117722;28;20764;-68
2021/06/23 10:31:44;;;;;;;7.20;4.87;;;;;;;;;;5117635;28;20954;-69
2021/06/23 10:34:11;;;;;;;7.67;5.23;;;;;;;;;;5117394;28;20942;-69
2021/06/23 10:36:40;;;;;;;13.50;5.10;;;;;;;;;;5117351;28;20571;-69
2021/06/23 10:39:07;;;;;;;14.83;6.33;;;;;;;;;;5117810;28;20470;-68
2021/06/23 10:41:39;;;;;;;13.43;7.73;;;;;;;;;;5117511;28;20438;-69
2021/06/23 10:44:21;;;;;;;13.70;6.03;;;;;;;;;;5117183;28;20442;-69
2021/06/23 10:46:49;;;;;;;7.27;5.10;;;;;;;;;;5117001;28;20946;-69
2021/06/23 10:49:18;;;;;;;9.40;5.80;;;;;;;;;;5117115;28;20483;-69
2021/06/23 10:51:47;;;;;;;10.53;6.37;;;;;;;;;;5117338;28;20804;-69
2021/06/23 10:54:45;;;;;;;10.93;6.20;;;;;;;;;;5116927;28;20931;-69
2021/06/23 10:57:25;;;;;;;12.00;6.10;;;;;;;;;;5054357;28;20564;-69
2021/06/23 10:59:54;;;;;;;12.23;5.80;;;;;;;;;;5108458;28;20530;-69
2021/06/23 11:02:29;;;;;;;16.17;6.50;;;;;;;;;;5116815;28;20438;-69
2021/06/23 11:05:06;;;;;;;8.77;6.37;;;;;;;;;;5116768;28;20427;-69
2021/06/23 11:07:36;;;;;;;13.60;6.23;;;;;;;;;;5117578;28;20845;-68
2021/06/23 11:10:25;;;;;;;10.83;6.10;;;;;;;;;;5116998;28;20434;-69
2021/06/23 11:12:53;;;;;;;12.70;6.03;;;;;;;;;;5117273;28;20441;-69
2021/06/23 11:15:23;;;;;;;11.30;7.97;;;;;;;;;;5117158;28;20435;-70
2021/06/23 11:17:52;;;;;;;11.50;6.27;;;;;;;;;;5116747;28;20525;-68
2021/06/23 11:20:37;;;;;;;15.50;6.47;;;;;;;;;;5116780;28;20446;-69
2021/06/23 11:23:05;;;;;;;10.90;6.20;;;;;;;;;;5116703;28;20484;-69
2021/06/23 11:25:34;;;;;;;14.63;6.50;;;;;;;;;;5116664;28;20481;-69
2021/06/23 11:28:20;;;;;;;12.53;6.57;;;;;;;;;;5116275;28;20483;-69
2021/06/23 11:31:03;;;;;;;12.27;6.40;;;;;;;;;;5116627;28;20438;-68
2021/06/23 11:33:57;;;;;;;12.53;7.50;;;;;;;;;;5115552;28;20431;-68
2021/06/23 11:36:25;;;;;;;11.17;7.00;;;;;;;;;;5116807;28;20432;-69
2021/06/23 11:38:53;;;;;;;8.33;5.67;;;;;;;;;;5116574;28;20562;-68
2021/06/23 11:41:20;;;;;;;10.67;7.70;;;;;;;;;;5116067;28;20441;-68
2021/06/23 11:43:48;;;;;;;13.20;6.10;;;;;;;;;;5116264;28;20928;-69
2021/06/23 11:46:16;;;;;;;10.27;6.47;;;;;;;;;;5116074;28;20918;-74
2021/06/23 11:48:43;;;;;;;8.33;5.63;;;;;;;;;;5116302;28;20448;-69
2021/06/23 11:51:11;;;;;;;10.20;5.97;;;;;;;;;;5116596;28;20534;-68
2021/06/23 11:53:38;;;;;;;9.30;5.63;;;;;;;;;;5116629;28;20535;-69
2021/06/23 11:56:06;;;;;;;10.20;6.83;;;;;;;;;;5115827;28;20444;-69
2021/06/23 11:58:33;;;;;;;13.57;5.40;;;;;;;;;;5115989;28;20471;-70
2021/06/23 12:01:00;;;;;;;12.27;6.47;;;;;;;;;;5115715;28;20527;-67
2021/06/23 12:03:29;;;;;;;9.20;6.53;;;;;;;;;;5116449;28;20524;-74
2021/06/23 12:05:56;;;;;;;9.10;6.23;;;;;;;;;;5115951;28;20452;-66
2021/06/23 12:08:25;;;;;;;12.17;6.07;;;;;;;;;;5115895;28;20447;-66
2021/06/23 12:10:52;;;;;;;9.23;6.50;;;;;;;;;;5116231;28;20445;-65
2021/06/23 12:13:22;;;;;;;13.10;7.47;;;;;;;;;;5126390;27;20478;-65
2021/06/23 12:15:49;;;;;;;9.73;6.33;;;;;;;;;;5135958;27;20455;-65
2021/06/23 12:18:16;;;;;;;7.27;6.40;;;;;;;;;;5135875;27;20576;-65
2021/06/23 12:20:45;;;;;;;9.23;6.17;;;;;;;;;;5135867;27;20443;-65
2021/06/23 12:23:12;;;;;;;12.83;7.67;;;;;;;;;;5135822;27;20448;-66
2021/06/23 12:25:41;;;;;;;8.17;6.57;;;;;;;;;;5135811;27;20441;-65
2021/06/23 12:28:10;;;;;;;7.27;6.57;;;;;;;;;;5135692;27;20445;-65
2021/06/23 12:30:39;;;;;;;9.00;6.97;;;;;;;;;;5135983;27;20455;-65
2021/06/23 12:33:08;;;;;;;17.37;6.30;;;;;;;;;;5135634;27;20451;-66
2021/06/23 12:35:35;;;;;;;9.57;6.70;;;;;;;;;;5135908;27;20509;-66
2021/06/23 12:38:08;;;;;;;13.47;6.90;;;;;;;;;;5135792;27;20497;-66
2021/06/23 12:40:35;;;;;;;10.40;6.13;;;;;;;;;;5135805;27;20433;-66
2021/06/23 12:43:03;;;;;;;15.23;6.93;;;;;;;;;;5135374;27;20439;-64
2021/06/23 12:45:30;;;;;;;11.23;7.60;;;;;;;;;;5136193;27;20898;-68
2021/06/23 12:47:57;;;;;;;6.57;5.30;;;;;;;;;;5135480;27;20448;-66
2021/06/23 12:50:24;;;;;;;8.13;5.87;;;;;;;;;;5135735;27;20439;-66
2021/06/23 12:52:52;;;;;;;10.03;6.60;;;;;;;;;;5134515;27;20863;-66
2021/06/23 12:55:22;;;;;;;8.80;6.30;;;;;;;;;;5135457;27;20844;-66
2021/06/23 12:57:49;;;;;;;10.13;6.83;;;;;;;;;;5123914;27;21051;-67
2021/06/23 13:00:17;;;;;;;8.70;7.20;;;;;;;;;;5114996;28;20481;-66
2021/06/23 13:02:45;;;;;;;11.40;7.17;;;;;;;;;;5115015;28;20565;-66
2021/06/23 13:05:13;;;;;;;12.93;6.93;;;;;;;;;;5115017;28;20504;-66
2021/06/23 13:07:40;;;;;;;7.57;6.30;;;;;;;;;;5114544;28;20456;-66
2021/06/23 13:10:08;;;;;;;10.57;6.70;;;;;;;;;;5114792;28;20494;-66
2021/06/23 13:12:36;;;;;;;10.70;7.07;;;;;;;;;;5114356;28;20436;-66
2021/06/23 13:15:04;;;;;;;8.50;6.57;;;;;;;;;;5114639;28;20520;-66
2021/06/23 13:17:32;;;;;;;10.27;7.00;;;;;;;;;;5114236;28;20490;-66
2021/06/23 13:19:59;;;;;;;9.83;7.20;;;;;;;;;;5114696;28;20429;-66
2021/06/23 13:22:27;;;;;;;8.57;7.80;;;;;;;;;;5114121;28;20931;-66
2021/06/23 13:24:55;;;;;;;9.83;7.40;;;;;;;;;;5114152;28;20959;-66
2021/06/23 13:27:22;;;;;;;12.37;9.10;;;;;;;;;;5114792;28;20469;-66
2021/06/23 13:29:51;;;;;;;18.93;12.07;;;;;;;;;;5114603;28;20528;-66
2021/06/23 13:32:20;;;;;;;11.60;8.87;;;;;;;;;;5114211;28;20838;-67
2021/06/23 13:34:47;;;;;;;10.73;7.30;;;;;;;;;;5113559;28;20460;-66
2021/06/23 13:37:14;;;;;;;8.37;7.00;;;;;;;;;;5114164;28;20438;-66
2021/06/23 13:39:41;;;;;;;8.97;7.43;;;;;;;;;;5113851;28;20441;-66
2021/06/23 13:42:09;;;;;;;9.53;7.47;;;;;;;;;;5113691;28;20449;-66
2021/06/23 13:44:36;;;;;;;9.30;7.30;;;;;;;;;;5113807;28;20444;-66
2021/06/23 13:47:05;;;;;;;11.00;7.77;;;;;;;;;;5114346;28;20446;-66
2021/06/23 13:49:32;;;;;;;13.33;8.07;;;;;;;;;;5114115;28;20441;-65
2021/06/23 13:52:00;;;;;;;10.67;7.17;;;;;;;;;;5113572;28;20945;-66
2021/06/23 13:54:27;;;;;;;10.47;7.70;;;;;;;;;;5113586;28;20437;-66
2021/06/23 13:56:54;;;;;;;11.40;7.77;;;;;;;;;;5113900;28;20441;-65
2021/06/23 13:59:21;;;;;;;11.23;7.30;;;;;;;;;;5113652;28;20573;-66
2021/06/23 14:01:49;;;;;;;8.33;7.53;;;;;;;;;;5113919;28;20436;-65
2021/06/23 14:04:17;;;;;;;14.50;8.13;;;;;;;;;;5113884;28;20433;-66
2021/06/23 14:06:44;;;;;;;13.03;7.70;;;;;;;;;;5113632;28;20438;-66
2021/06/23 14:09:12;;;;;;;7.20;6.30;;;;;;;;;;5114453;28;20882;-66
2021/06/23 14:11:39;;;;;;;9.00;6.90;;;;;;;;;;5113585;28;20529;-66
2021/06/23 14:14:06;;;;;;;9.23;7.53;;;;;;;;;;5113796;28;20466;-65
2021/06/23 14:16:33;;;;;;;18.23;13.60;;;;;;;;;;5113642;28;20928;-66
2021/06/23 14:19:00;;;;;;;11.17;9.80;;;;;;;;;;5113983;28;20502;-65
2021/06/23 14:21:31;;;;;;;9.93;8.20;;;;;;;;;;5113808;28;20442;-66
2021/06/23 14:23:59;;;;;;;16.40;7.23;;;;;;;;;;5113595;28;20911;-65
2021/06/23 14:26:26;;;;;;;12.10;8.03;;;;;;;;;;5113647;28;20442;-65
2021/06/23 14:28:54;;;;;;;14.97;8.67;;;;;;;;;;5113345;28;20438;-65
2021/06/23 14:31:21;;;;;;;13.77;10.57;;;;;;;;;;5113567;28;20529;-65
2021/06/23 14:33:48;;;;;;;10.67;7.97;;;;;;;;;;5113346;28;20443;-65
2021/06/23 14:36:15;;;;;;;9.37;8.47;;;;;;;;;;5113076;28;20442;-66
2021/06/23 14:38:44;;;;;;;11.07;8.00;;;;;;;;;;5113370;28;20476;-65
2021/06/23 14:41:11;;;;;;;8.80;7.50;;;;;;;;;;5113082;28;20961;-66
2021/06/23 14:43:38;;;;;;;8.73;7.80;;;;;;;;;;5113256;28;20575;-65
2021/06/23 14:46:07;;;;;;;7.80;7.10;;;;;;;;;;5113395;28;20756;-65
2021/06/23 14:48:34;;;;;;;18.67;9.93;;;;;;;;;;5113750;28;20445;-66
2021/06/23 14:51:02;;;;;;;15.43;12.97;;;;;;;;;;5113354;28;20444;-66
2021/06/23 14:53:29;;;;;;;9.13;8.10;;;;;;;;;;5114155;28;20480;-66